createdAt,value
2018-09-02T00:01:37.411Z,21.27
2018-09-02T00:04:05.024Z,18.30
2018-09-02T00:06:32.544Z,25.33
2018-09-02T00:09:00.090Z,20.10
2018-09-02T00:11:27.751Z,24.57
2018-09-02T00:13:55.322Z,18.43
2018-09-02T00:16:22.901Z,22.93
2018-09-02T00:18:50.458Z,19.20
2018-09-02T00:21:18.030Z,20.57
2018-09-02T00:23:45.554Z,18.03
2018-09-02T00:26:13.156Z,18.13
2018-09-02T00:28:40.674Z,18.00
2018-09-02T00:31:08.288Z,19.70
2018-09-02T00:33:35.824Z,19.80
2018-09-02T00:36:03.377Z,24.00
2018-09-02T00:38:30.984Z,17.63
2018-09-02T00:40:58.533Z,20.07
2018-09-02T00:43:26.075Z,18.80
2018-09-02T00:45:53.613Z,17.33
2018-09-02T00:48:21.200Z,22.33
2018-09-02T00:50:48.796Z,17.20
2018-09-02T00:53:16.341Z,19.10
2018-09-02T00:55:43.888Z,14.60
2018-09-02T00:58:11.411Z,19.00
2018-09-02T01:00:38.958Z,21.20
2018-09-02T01:03:06.546Z,23.83
2018-09-02T01:05:34.085Z,19.90
2018-09-02T01:08:01.779Z,20.40
2018-09-02T01:10:29.361Z,17.17
2018-09-02T01:12:56.959Z,18.17
2018-09-02T01:15:24.551Z,19.67
2018-09-02T01:17:52.103Z,21.47
2018-09-02T01:20:20.654Z,18.97
2018-09-02T01:22:48.206Z,20.27
2018-09-02T01:25:15.775Z,21.57
2018-09-02T01:27:43.375Z,21.67
2018-09-02T01:30:10.933Z,29.13
2018-09-02T01:32:38.485Z,20.93
2018-09-02T01:35:06.168Z,21.93
2018-09-02T01:37:33.703Z,23.60
2018-09-02T01:40:01.209Z,21.90
2018-09-02T01:42:28.747Z,25.10
2018-09-02T01:44:56.333Z,23.83
2018-09-02T01:47:23.893Z,21.80
2018-09-02T01:49:51.455Z,29.00
2018-09-02T01:52:19.046Z,25.10
2018-09-02T01:54:46.600Z,30.33
2018-09-02T01:57:14.163Z,28.80
2018-09-02T01:59:41.731Z,29.97
2018-09-02T02:02:09.298Z,21.63
2018-09-02T02:04:41.184Z,24.07
2018-09-02T02:07:09.667Z,20.90
2018-09-02T02:09:37.229Z,27.67
2018-09-02T02:12:04.816Z,26.47
2018-09-02T02:14:32.362Z,27.97
2018-09-02T02:16:59.984Z,24.87
2018-09-02T02:19:27.655Z,24.23
2018-09-02T02:21:55.209Z,22.40
2018-09-02T02:24:22.782Z,26.80
2018-09-02T02:26:50.354Z,22.90
2018-09-02T02:29:17.982Z,21.30
2018-09-02T02:31:45.580Z,28.13
2018-09-02T02:34:13.134Z,30.80
2018-09-02T02:36:40.700Z,28.30
2018-09-02T02:39:10.162Z,26.57
2018-09-02T02:41:37.680Z,24.93
2018-09-02T02:44:05.410Z,29.00
2018-09-02T02:46:32.993Z,23.60
2018-09-02T02:49:00.519Z,31.27
2018-09-02T02:51:28.100Z,28.43
2018-09-02T02:53:55.662Z,26.20
2018-09-02T02:56:23.211Z,31.50
2018-09-02T02:58:50.725Z,24.07
2018-09-02T03:01:18.256Z,25.97
2018-09-02T03:03:45.789Z,26.30
2018-09-02T03:06:13.325Z,24.83
2018-09-02T03:08:40.875Z,28.67
2018-09-02T03:11:08.414Z,31.33
2018-09-02T03:13:36.055Z,27.90
2018-09-02T03:16:03.708Z,28.33
2018-09-02T03:18:31.253Z,24.93
2018-09-02T03:20:58.810Z,24.93
2018-09-02T03:23:26.370Z,30.13
2018-09-02T03:25:53.894Z,26.97
2018-09-02T03:28:21.452Z,33.37
2018-09-02T03:30:49.048Z,23.80
2018-09-02T03:33:16.588Z,26.10
2018-09-02T03:35:44.123Z,29.43
2018-09-02T03:38:11.665Z,29.20
2018-09-02T03:40:39.243Z,26.17
2018-09-02T03:43:06.789Z,27.27
2018-09-02T03:45:34.321Z,25.60
2018-09-02T03:48:02.522Z,25.77
2018-09-02T03:50:30.264Z,27.17
2018-09-02T03:52:57.903Z,28.40
2018-09-02T03:55:25.461Z,25.77
2018-09-02T03:57:53.004Z,24.57
2018-09-02T04:00:20.598Z,27.90
2018-09-02T04:02:48.161Z,24.77
2018-09-02T04:05:15.706Z,33.67
2018-09-02T04:07:43.281Z,26.43
2018-09-02T04:10:10.844Z,27.60
2018-09-02T04:12:38.404Z,33.10
2018-09-02T04:15:06.395Z,26.60
2018-09-02T04:17:33.951Z,29.27
2018-09-02T04:20:01.465Z,28.20
2018-09-02T04:22:29.008Z,22.33
2018-09-02T04:24:56.524Z,32.13
2018-09-02T04:27:24.108Z,23.17
2018-09-02T04:29:51.616Z,19.47
2018-09-02T04:32:19.180Z,24.70
2018-09-02T04:34:46.711Z,23.80
2018-09-02T04:37:14.216Z,23.47
2018-09-02T04:39:41.759Z,22.73
2018-09-02T04:42:09.440Z,31.70
2018-09-02T04:44:36.945Z,24.70
2018-09-02T04:47:04.455Z,17.10
2018-09-02T04:49:32.029Z,19.40
2018-09-02T04:51:59.542Z,22.33
2018-09-02T04:54:27.160Z,17.73
2018-09-02T04:56:54.654Z,25.33
2018-09-02T04:59:22.184Z,16.97
2018-09-02T05:01:49.760Z,19.33
2018-09-02T05:04:17.322Z,17.70
2018-09-02T05:06:44.836Z,18.10
2018-09-02T05:09:12.372Z,17.37
2018-09-02T05:11:39.933Z,17.70
2018-09-02T05:14:07.530Z,20.07
2018-09-02T05:16:35.026Z,16.40
2018-09-02T05:19:02.572Z,16.10
2018-09-02T05:21:30.137Z,19.60
2018-09-02T05:23:57.680Z,18.70
2018-09-02T05:26:25.296Z,17.13
2018-09-02T05:28:52.933Z,18.13
2018-09-02T05:31:20.582Z,22.07
2018-09-02T05:33:48.140Z,18.00
2018-09-02T05:36:15.720Z,21.37
2018-09-02T05:38:43.270Z,20.70
2018-09-02T05:41:10.794Z,17.20
2018-09-02T05:43:38.335Z,18.77
2018-09-02T05:46:05.928Z,15.80
2018-09-02T05:48:33.482Z,18.87
2018-09-02T05:51:01.022Z,17.50
2018-09-02T05:53:28.563Z,18.00
2018-09-02T05:55:56.119Z,15.50
2018-09-02T05:58:23.654Z,20.03
2018-09-02T06:00:51.224Z,16.93
2018-09-02T06:03:18.773Z,17.93
2018-09-02T06:05:46.391Z,15.10
2018-09-02T06:08:13.947Z,16.87
2018-09-02T06:10:41.532Z,15.47
2018-09-02T06:13:09.075Z,14.50
2018-09-02T06:15:36.646Z,14.30
2018-09-02T06:18:04.316Z,17.07
2018-09-02T06:20:31.855Z,16.60
2018-09-02T06:22:59.426Z,16.93
2018-09-02T06:25:26.945Z,15.60
2018-09-02T06:27:54.527Z,15.27
2018-09-02T06:30:22.105Z,15.60
2018-09-02T06:32:49.662Z,16.57
2018-09-02T06:35:17.301Z,19.00
2018-09-02T06:37:44.899Z,16.10
2018-09-02T06:40:12.425Z,14.80
2018-09-02T06:42:39.983Z,16.10
2018-09-02T06:45:07.565Z,14.57
2018-09-02T06:47:35.115Z,16.63
2018-09-02T06:50:02.689Z,14.17
2018-09-02T06:52:30.241Z,15.97
2018-09-02T06:54:57.815Z,16.73
2018-09-02T06:57:25.405Z,19.47
2018-09-02T06:59:52.961Z,14.70
2018-09-02T07:02:20.526Z,14.60
2018-09-02T07:04:48.062Z,20.13
2018-09-02T07:07:15.726Z,20.43
2018-09-02T07:09:43.249Z,15.00
2018-09-02T07:12:10.817Z,18.13
2018-09-02T07:14:38.349Z,17.63
2018-09-02T07:17:05.930Z,16.80
2018-09-02T07:19:33.519Z,16.47
2018-09-02T07:22:01.052Z,17.67
2018-09-02T07:24:28.621Z,17.30
2018-09-02T07:26:56.148Z,17.77
2018-09-02T07:29:23.686Z,12.83
2018-09-02T07:31:51.240Z,11.00
2018-09-02T07:34:18.789Z,13.90
2018-09-02T07:36:46.332Z,13.90
2018-09-02T07:39:13.914Z,14.60
2018-09-02T07:41:41.469Z,16.07
2018-09-02T07:44:09.106Z,18.90
2018-09-02T07:46:36.569Z,13.03
2018-09-02T07:49:04.300Z,17.00
2018-09-02T07:51:31.818Z,14.37
2018-09-02T07:53:59.368Z,14.53
2018-09-02T07:56:26.914Z,15.00
2018-09-02T07:58:54.572Z,16.70
2018-09-02T08:01:22.148Z,16.87
2018-09-02T08:03:49.739Z,17.60
2018-09-02T08:06:17.325Z,11.23
2018-09-02T08:08:44.899Z,14.00
2018-09-02T08:11:12.487Z,14.20
2018-09-02T08:13:40.045Z,13.37
2018-09-02T08:16:07.598Z,15.83
2018-09-02T08:18:35.166Z,14.43
2018-09-02T08:21:02.761Z,15.30
2018-09-02T08:23:30.408Z,14.30
2018-09-02T08:25:57.976Z,13.63
2018-09-02T08:28:25.595Z,14.60
2018-09-02T08:30:53.238Z,13.03
2018-09-02T08:33:20.794Z,12.23
2018-09-02T08:35:48.337Z,12.70
2018-09-02T08:38:15.871Z,9.43
2018-09-02T08:40:43.432Z,13.20
2018-09-02T08:43:10.978Z,12.67
2018-09-02T08:45:38.593Z,14.37
2018-09-02T08:48:06.210Z,16.20
2018-09-02T08:50:33.845Z,11.50
2018-09-02T08:53:01.369Z,10.17
2018-09-02T08:55:28.917Z,12.70
2018-09-02T08:57:56.458Z,18.00
2018-09-02T09:00:24.081Z,11.13
2018-09-02T09:02:51.939Z,12.20
2018-09-02T09:05:19.511Z,9.97
2018-09-02T09:07:47.262Z,12.57
2018-09-02T09:10:14.729Z,11.60
2018-09-02T09:12:42.377Z,9.70
2018-09-02T09:15:09.964Z,14.80
2018-09-02T09:17:37.551Z,11.70
2018-09-02T09:20:05.371Z,10.30
2018-09-02T09:22:33.040Z,11.30
2018-09-02T09:25:00.558Z,10.87
2018-09-02T09:27:28.121Z,11.13
2018-09-02T09:29:55.635Z,22.10
2018-09-02T09:32:23.287Z,10.40
2018-09-02T09:34:50.806Z,10.70
2018-09-02T09:37:18.384Z,12.40
2018-09-02T09:39:45.954Z,9.57
2018-09-02T09:42:13.556Z,11.00
2018-09-02T09:44:41.092Z,8.83
2018-09-02T09:47:08.644Z,11.73
2018-09-02T09:49:36.308Z,12.30
2018-09-02T09:52:04.755Z,13.30
2018-09-02T09:54:33.106Z,10.17
2018-09-02T09:57:00.646Z,13.30
2018-09-02T09:59:28.222Z,12.87
2018-09-02T10:01:55.794Z,9.90
2018-09-02T10:04:23.390Z,11.70
2018-09-02T10:06:50.983Z,12.10
2018-09-02T10:09:18.542Z,10.07
2018-09-02T10:11:46.139Z,12.63
2018-09-02T10:14:13.680Z,10.37
2018-09-02T10:16:41.290Z,19.73
2018-09-02T10:19:08.933Z,9.93
2018-09-02T10:21:36.506Z,6.73
2018-09-02T10:24:04.395Z,7.93
2018-09-02T10:26:31.995Z,9.47
2018-09-02T10:28:59.561Z,8.93
2018-09-02T10:31:27.165Z,8.90
2018-09-02T10:33:54.778Z,8.73
2018-09-02T10:36:22.890Z,6.90
2018-09-02T10:38:50.452Z,5.77
2018-09-02T10:41:18.264Z,5.50
2018-09-02T10:43:45.691Z,6.60
2018-09-02T10:46:13.330Z,5.80
2018-09-02T10:48:40.904Z,6.90
2018-09-02T10:51:08.474Z,8.10
2018-09-02T10:53:36.043Z,6.20
2018-09-02T10:56:03.764Z,7.63
2018-09-02T10:58:31.423Z,7.50
2018-09-02T11:00:59.036Z,7.50
2018-09-02T11:03:26.658Z,7.87
2018-09-02T11:05:54.239Z,7.90
2018-09-02T11:08:21.767Z,7.43
2018-09-02T11:10:49.395Z,7.00
2018-09-02T11:13:17.195Z,5.70
2018-09-02T11:15:44.707Z,4.73
2018-09-02T11:18:12.356Z,4.27
2018-09-02T11:20:40.101Z,6.00
2018-09-02T11:23:07.611Z,5.20
2018-09-02T11:25:35.431Z,6.37
2018-09-02T11:28:03.029Z,6.07
2018-09-02T11:30:30.663Z,3.80
2018-09-02T11:32:58.309Z,5.23
2018-09-02T11:35:25.873Z,6.10
2018-09-02T11:37:53.434Z,4.67
2018-09-02T11:40:21.017Z,4.93
2018-09-02T11:42:48.569Z,5.80
2018-09-02T11:45:16.139Z,4.90
2018-09-02T11:47:43.947Z,3.80
2018-09-02T11:50:11.514Z,5.73
2018-09-02T11:52:39.150Z,4.33
2018-09-02T11:55:06.845Z,5.30
2018-09-02T11:57:34.611Z,4.93
2018-09-02T12:00:02.302Z,5.07
2018-09-02T12:02:29.950Z,4.00
2018-09-02T12:04:57.620Z,9.57
2018-09-02T12:07:25.169Z,4.57
2018-09-02T12:09:52.721Z,7.27
2018-09-02T12:12:20.337Z,4.43
2018-09-02T12:14:47.927Z,4.73
2018-09-02T12:17:15.525Z,6.20
2018-09-02T12:19:43.114Z,4.47
2018-09-02T12:22:10.798Z,3.90
2018-09-02T12:24:38.366Z,4.50
2018-09-02T12:27:05.960Z,4.20
2018-09-02T12:29:34.383Z,5.13
2018-09-02T12:32:02.135Z,5.90
2018-09-02T12:34:29.726Z,4.57
2018-09-02T12:36:57.341Z,5.23
2018-09-02T12:39:24.909Z,4.57
2018-09-02T12:41:52.483Z,4.40
2018-09-02T12:44:20.160Z,7.17
2018-09-02T12:46:47.772Z,6.30
2018-09-02T12:49:15.429Z,6.20
2018-09-02T12:51:43.054Z,4.90
2018-09-02T12:54:10.676Z,3.67
2018-09-02T12:56:38.301Z,5.23
2018-09-02T12:59:05.897Z,5.30
2018-09-02T13:01:33.538Z,7.47
2018-09-02T13:04:01.134Z,6.10
2018-09-02T13:06:28.812Z,9.23
2018-09-02T13:08:56.421Z,7.03
2018-09-02T13:11:24.015Z,7.20
2018-09-02T13:13:51.606Z,8.37
2018-09-02T13:16:19.245Z,7.03
2018-09-02T13:18:46.847Z,6.63
2018-09-02T13:21:14.408Z,7.70
2018-09-02T13:23:41.971Z,7.50
2018-09-02T13:26:09.553Z,8.50
2018-09-02T13:28:37.108Z,10.67
2018-09-02T13:31:05.024Z,8.03
2018-09-02T13:33:32.684Z,10.50
2018-09-02T13:36:00.253Z,9.47
2018-09-02T13:38:27.905Z,7.73
2018-09-02T13:40:55.451Z,11.23
2018-09-02T13:43:23.059Z,11.20
2018-09-02T13:45:50.616Z,9.87
2018-09-02T13:48:18.223Z,7.80
2018-09-02T13:50:45.827Z,7.20
2018-09-02T13:53:13.517Z,9.60
2018-09-02T13:55:41.160Z,9.53
2018-09-02T13:58:08.770Z,9.20
2018-09-02T14:00:36.377Z,10.47
2018-09-02T14:03:04.045Z,11.23
2018-09-02T14:05:31.637Z,10.93
2018-09-02T14:07:59.355Z,9.37
2018-09-02T14:10:26.857Z,10.03
2018-09-02T14:12:54.495Z,10.00
2018-09-02T14:15:22.157Z,9.37
2018-09-02T14:17:49.817Z,9.60
2018-09-02T14:20:18.145Z,10.30
2018-09-02T14:22:45.815Z,6.33
2018-09-02T14:25:13.423Z,7.70
2018-09-02T14:27:40.989Z,13.13
2018-09-02T14:30:08.837Z,9.40
2018-09-02T14:32:36.499Z,12.07
2018-09-02T14:35:04.289Z,9.83
2018-09-02T14:37:31.953Z,12.50
2018-09-02T14:39:59.556Z,11.57
2018-09-02T14:42:27.162Z,11.67
2018-09-02T14:44:54.763Z,12.77
2018-09-02T14:47:22.397Z,13.60
2018-09-02T14:49:49.979Z,12.70
2018-09-02T14:52:17.600Z,12.37
2018-09-02T14:54:45.278Z,11.70
2018-09-02T14:57:12.957Z,13.37
2018-09-02T14:59:40.688Z,12.30
2018-09-02T15:02:08.305Z,14.00
2018-09-02T15:04:36.700Z,19.07
2018-09-02T15:07:04.344Z,11.07
2018-09-02T15:09:31.976Z,10.73
2018-09-02T15:11:59.830Z,11.07
2018-09-02T15:14:27.448Z,19.23
2018-09-02T15:16:55.103Z,10.97
2018-09-02T15:19:22.759Z,10.30
2018-09-02T15:21:50.419Z,9.43
2018-09-02T15:24:18.980Z,11.00
2018-09-02T15:26:46.636Z,9.67
2018-09-02T15:29:15.399Z,9.70
2018-09-02T15:31:43.064Z,11.43
2018-09-02T15:34:10.669Z,10.03
2018-09-02T15:36:38.323Z,9.43
2018-09-02T15:39:07.506Z,8.77
2018-09-02T15:41:35.129Z,9.13
2018-09-02T15:44:02.781Z,10.30
2018-09-02T15:46:30.457Z,8.30
2018-09-02T15:48:58.113Z,9.90
2018-09-02T15:51:25.809Z,13.07
2018-09-02T15:53:53.409Z,9.13
2018-09-02T15:56:21.151Z,8.10
2018-09-02T15:58:48.912Z,11.93
2018-09-02T16:01:16.588Z,10.73
2018-09-02T16:03:44.262Z,9.03
2018-09-02T16:06:12.372Z,8.47
2018-09-02T16:08:39.997Z,11.10
2018-09-02T16:11:07.628Z,10.63
2018-09-02T16:13:35.318Z,10.00
2018-09-02T16:16:02.984Z,10.13
2018-09-02T16:18:31.007Z,9.57
2018-09-02T16:20:58.699Z,10.03
2018-09-02T16:23:26.384Z,13.87
2018-09-02T16:25:54.033Z,14.60
2018-09-02T16:28:21.679Z,13.60
2018-09-02T16:30:49.538Z,14.80
2018-09-02T16:33:17.291Z,25.43
2018-09-02T16:35:44.996Z,13.47
2018-09-02T16:38:12.790Z,14.80
2018-09-02T16:40:40.448Z,16.73
2018-09-02T16:43:08.839Z,17.27
2018-09-02T16:45:37.506Z,14.77
2018-09-02T16:48:05.366Z,14.83
2018-09-02T16:50:33.690Z,12.30
2018-09-02T16:53:01.455Z,13.60
2018-09-02T16:55:28.991Z,13.43
2018-09-02T16:57:56.622Z,11.93
2018-09-02T17:00:24.314Z,11.37
2018-09-02T17:02:51.911Z,12.30
2018-09-02T17:05:21.636Z,6.53
2018-09-02T17:07:50.108Z,8.63
2018-09-02T17:10:17.885Z,9.30
2018-09-02T17:12:45.555Z,10.23
2018-09-02T17:15:13.191Z,7.33
2018-09-02T17:17:40.842Z,11.60
2018-09-02T17:20:10.081Z,11.53
2018-09-02T17:22:37.720Z,5.97
2018-09-02T17:25:05.494Z,9.40
2018-09-02T17:27:33.190Z,11.00
2018-09-02T17:30:01.001Z,10.80
2018-09-02T17:32:29.041Z,11.53
2018-09-02T17:34:56.685Z,9.20
2018-09-02T17:37:24.465Z,7.83
2018-09-02T17:39:52.225Z,9.23
2018-09-02T17:42:19.893Z,10.50
2018-09-02T17:44:47.646Z,11.63
2018-09-02T17:47:15.386Z,10.47
2018-09-02T17:49:43.971Z,13.83
2018-09-02T17:52:11.642Z,14.90
2018-09-02T17:54:39.417Z,10.83
2018-09-02T17:57:07.114Z,15.20
2018-09-02T17:59:34.863Z,12.30
2018-09-02T18:02:02.958Z,14.43
2018-09-02T18:04:30.569Z,13.43
2018-09-02T18:06:58.344Z,13.67
2018-09-02T18:09:25.987Z,16.90
2018-09-02T18:11:54.039Z,15.80
2018-09-02T18:14:21.724Z,14.20
2018-09-02T18:16:49.403Z,16.47
2018-09-02T18:19:17.586Z,14.63
2018-09-02T18:21:46.039Z,14.83
2018-09-02T18:24:13.751Z,15.13
2018-09-02T18:26:41.477Z,17.33
2018-09-02T18:29:09.772Z,17.33
2018-09-02T18:31:37.510Z,14.53
2018-09-02T18:34:06.414Z,16.63
2018-09-02T18:36:34.085Z,15.57
2018-09-02T18:39:02.036Z,15.50
2018-09-02T18:41:29.747Z,14.70
2018-09-02T18:43:58.279Z,13.60
2018-09-02T18:46:26.027Z,13.10
2018-09-02T18:48:53.759Z,17.60
2018-09-02T18:51:21.421Z,16.87
2018-09-02T18:53:49.136Z,10.83
2018-09-02T18:56:17.543Z,14.90
2018-09-02T18:58:45.314Z,13.77
2018-09-02T19:01:13.015Z,16.33
2018-09-02T19:03:41.493Z,19.57
2018-09-02T19:06:09.577Z,24.47
2018-09-02T19:08:37.254Z,14.90
2018-09-02T19:11:04.980Z,20.73
2018-09-02T19:13:32.757Z,14.67
2018-09-02T19:16:00.755Z,15.33
2018-09-02T19:18:28.456Z,15.90
2018-09-02T19:20:56.447Z,15.97
2018-09-02T19:23:24.142Z,17.40
2018-09-02T19:25:52.923Z,16.57
2018-09-02T19:28:20.804Z,14.47
2018-09-02T19:30:48.506Z,16.10
2018-09-02T19:33:16.703Z,19.20
2018-09-02T19:35:44.782Z,16.80
2018-09-02T19:38:12.512Z,16.10
2018-09-02T19:40:40.332Z,14.47
2018-09-02T19:43:09.006Z,15.33
2018-09-02T19:45:36.861Z,16.47
2018-09-02T19:48:04.573Z,14.70
2018-09-02T19:50:32.289Z,14.80
2018-09-02T19:53:00.162Z,17.73
2018-09-02T19:55:28.780Z,15.30
2018-09-02T19:57:56.550Z,14.53
2018-09-02T20:00:24.134Z,14.63
2018-09-02T20:02:52.578Z,22.43
2018-09-02T20:05:21.234Z,15.07
2018-09-02T20:07:49.018Z,14.90
2018-09-02T20:10:16.709Z,13.80
2018-09-02T20:12:45.186Z,14.37
2018-09-02T20:15:12.925Z,16.60
2018-09-02T20:17:40.546Z,25.17
2018-09-02T20:20:08.232Z,17.93
2018-09-02T20:22:35.924Z,17.60
2018-09-02T20:25:03.676Z,13.33
2018-09-02T20:27:31.322Z,13.80
2018-09-02T20:29:59.799Z,13.83
2018-09-02T20:32:27.555Z,14.20
2018-09-02T20:34:55.221Z,17.00
2018-09-02T20:37:23.592Z,23.10
2018-09-02T20:39:51.253Z,16.83
2018-09-02T20:42:18.935Z,17.17
2018-09-02T20:44:46.577Z,15.90
2018-09-02T20:47:14.242Z,14.03
2018-09-02T20:49:41.915Z,19.93
2018-09-02T20:52:09.619Z,16.70
2018-09-02T20:54:37.252Z,12.70
2018-09-02T20:57:05.247Z,17.70
2018-09-02T20:59:33.021Z,22.27
2018-09-02T21:02:00.726Z,17.23
2018-09-02T21:04:28.436Z,17.40
2018-09-02T21:06:56.120Z,16.97
2018-09-02T21:09:23.777Z,18.43
2018-09-02T21:11:51.460Z,17.03
2018-09-02T21:14:19.041Z,19.07
2018-09-02T21:16:46.678Z,16.70
2018-09-02T21:19:14.292Z,19.27
2018-09-02T21:21:41.932Z,21.03
2018-09-02T21:24:09.519Z,22.00
2018-09-02T21:26:37.161Z,22.83
2018-09-02T21:29:05.762Z,19.30
2018-09-02T21:31:33.348Z,21.80
2018-09-02T21:34:00.909Z,22.03
2018-09-02T21:36:28.468Z,15.73
2018-09-02T21:38:56.006Z,17.70
2018-09-02T21:41:23.554Z,17.47
2018-09-02T21:43:51.134Z,17.57
2018-09-02T21:46:21.384Z,22.93
2018-09-02T21:48:48.944Z,20.17
2018-09-02T21:51:16.588Z,21.80
2018-09-02T21:53:44.143Z,17.50
2018-09-02T21:56:11.693Z,18.60
2018-09-02T21:58:39.330Z,20.73
2018-09-02T22:01:06.906Z,19.80
2018-09-02T22:03:34.612Z,20.30
2018-09-02T22:06:02.208Z,21.43
2018-09-02T22:08:29.764Z,19.90
2018-09-02T22:10:57.324Z,19.77
2018-09-02T22:13:24.886Z,21.63
2018-09-02T22:15:52.468Z,22.67
2018-09-02T22:18:20.008Z,23.47
2018-09-02T22:20:47.586Z,25.60
2018-09-02T22:23:15.443Z,27.53
2018-09-02T22:25:43.046Z,25.20
2018-09-02T22:28:10.545Z,24.03
2018-09-02T22:30:38.112Z,24.43
2018-09-02T22:33:05.756Z,25.93
2018-09-02T22:35:33.382Z,22.30
2018-09-02T22:38:00.910Z,22.73
2018-09-02T22:40:28.602Z,24.00
2018-09-02T22:42:56.154Z,29.57
2018-09-02T22:45:23.750Z,28.63
2018-09-02T22:47:51.358Z,26.30
2018-09-02T22:50:18.997Z,28.00
2018-09-02T22:52:46.536Z,23.03
2018-09-02T22:55:14.089Z,28.17
2018-09-02T22:57:41.740Z,29.03
2018-09-02T23:00:09.319Z,37.20
2018-09-02T23:02:36.894Z,33.00
2018-09-02T23:05:04.780Z,34.10
2018-09-02T23:07:32.343Z,28.23
2018-09-02T23:10:00.134Z,31.77
2018-09-02T23:12:27.691Z,29.77
2018-09-02T23:14:55.202Z,31.33
2018-09-02T23:17:22.743Z,26.53
2018-09-02T23:19:50.339Z,27.93
2018-09-02T23:22:17.918Z,24.03
2018-09-02T23:24:45.592Z,23.20
2018-09-02T23:27:13.157Z,24.10
2018-09-02T23:29:40.691Z,25.37
2018-09-02T23:32:08.242Z,24.90
2018-09-02T23:34:35.763Z,23.60
2018-09-02T23:37:03.344Z,26.07
2018-09-02T23:39:30.869Z,31.67
2018-09-02T23:41:58.412Z,27.63
2018-09-02T23:44:25.932Z,26.97
2018-09-02T23:46:53.489Z,25.47
2018-09-02T23:49:21.047Z,27.67
2018-09-02T23:51:48.602Z,24.93
2018-09-02T23:54:16.148Z,30.07
2018-09-02T23:56:43.722Z,29.30
2018-09-02T23:59:11.306Z,28.73
